Observation data for Seminole on 12/08/2018      Previous  Date  Next       Current Mesonet Observations  Soil Data  Daily Summary Page  Observations in Plain Language
KSM1 080600Z 01006KT 00/01 A3025 RMK A01 T00-000-5  RH  097%=      5-min Rain = 0
KSM1 080605Z 01007KT 00/01 A3025 RMK A01 T00-000-5  RH  097%=      5-min Rain = 0.01
KSM1 080610Z 01008KT 00/01 A3025 RMK A01 T00-000-5  RH  098%=      5-min Rain = 0
KSM1 080615Z 01008KT 00/01 A3024 RMK A01 T00-000-5  RH  098%=      5-min Rain = 0
KSM1 080620Z 01008KT 00/01 A3024 RMK A01 T00-000-5  RH  098%=      5-min Rain = 0.01
KSM1 080625Z 01008KT 00/01 A3024 RMK A01 T00-000-5  RH  098%=      5-min Rain = 0.01
KSM1 080630Z 01008KT 00/01 A3024 RMK A01 T00-000-5  RH  098%=      5-min Rain = 0
KSM1 080635Z 01008KT 00/01 A3024 RMK A01 T000000-5  RH  098%=      5-min Rain = 0.01
KSM1 080640Z 01008KT 00/01 A3024 RMK A01 T000000-5  RH  098%=      5-min Rain = 0.01
KSM1 080645Z 01007KT 00/01 A3024 RMK A01 T000000-5  RH  098%=      5-min Rain = 0
KSM1 080650Z 01006KT 00/01 A3024 RMK A01 T000000-5  RH  098%=      5-min Rain = 0.01
KSM1 080655Z 02007KT 00/00 A3024 RMK A01 T000000-4  RH  098%=      5-min Rain = 0
KSM1 080700Z 02007KT 00/00 A3024 RMK A01 T000000-4  RH  098%=      5-min Rain = 0
KSM1 080705Z 02007KT 00/00 A3023 RMK A01 T000000-4  RH  098%=      5-min Rain = 0
KSM1 080710Z 02007KT 00/01 A3023 RMK A01 T00-000-5  RH  098%=      5-min Rain = 0
KSM1 080715Z 02008KT 00/01 A3023 RMK A01 T00-000-5  RH  098%=      5-min Rain = 0
KSM1 080720Z 02009KT 00/01 A3023 RMK A01 T00-000-5  RH  098%=      5-min Rain = 0
KSM1 080725Z 02009KT 00/01 A3023 RMK A01 T00-000-5  RH  098%=      5-min Rain = 0
KSM1 080730Z 02008KT 00/01 A3022 RMK A01 T00-000-5  RH  098%=      5-min Rain = 0
KSM1 080735Z 02009KT 00/01 A3022 RMK A01 T00-000-5  RH  098%=      5-min Rain = 0
KSM1 080740Z 02009KT 00/01 A3022 RMK A01 T00-000-5  RH  098%=      5-min Rain = 0.01
KSM1 080745Z 02010KT 00/01 A3022 RMK A01 T00-000-5  RH  098%=      5-min Rain = 0
KSM1 080750Z 03010KT M00/M01 A3022 RMK A01 T10011005  RH  098%=      5-min Rain = 0
KSM1 080755Z 02010KT M00/M01 A3021 RMK A01 T10011005  RH  098%=      5-min Rain = 0
KSM1 080800Z 02011KT M00/M01 A3021 RMK A01 T10011005  RH  098%=      5-min Rain = 0
KSM1 080805Z 03012KT M00/M01 A302 RMK A01 T10011005  RH  098%=      5-min Rain = 0
KSM1 080810Z 03011KT M00/M01 A302 RMK A01 T10011005  RH  098%=      5-min Rain = 0
KSM1 080815Z 03011KT M00/M01 A302 RMK A01 T10011005  RH  098%=      5-min Rain = 0.02
KSM1 080820Z 03011KT M00/M01 A302 RMK A01 T10011005  RH  098%=      5-min Rain = 0.01
KSM1 080825Z 02011KT M00/M01 A302 RMK A01 T10011005  RH  098%=      5-min Rain = 0.01
KSM1 080830Z 02012KT 00/01 A302 RMK A01 T00-000-5  RH  098%=      5-min Rain = 0.01
KSM1 080835Z 02012KT 00/01 A302 RMK A01 T00-000-5  RH  098%=      5-min Rain = 0.01
KSM1 080840Z 02012KT M00/M01 A302 RMK A01 T10011005  RH  098%=      5-min Rain = 0
KSM1 080845Z 01011G16KT M00/M01 A3021 RMK A01 T10011005  RH  098%=      5-min Rain = 0.01
KSM1 080850Z 01011KT M00/M01 A3021 RMK A01 T10011005  RH  098%=      5-min Rain = 0.01
KSM1 080855Z 02010KT M00/M01 A3021 RMK A01 T10011005  RH  098%=      5-min Rain = 0
KSM1 080900Z 02009KT M00/M01 A3021 RMK A01 T10011005  RH  098%=      5-min Rain = 0
KSM1 080905Z 02010KT M00/M01 A3022 RMK A01 T10011005  RH  098%=      5-min Rain = 0
KSM1 080910Z 01009KT M00/M01 A3022 RMK A01 T10011005  RH  098%=      5-min Rain = 0.01
KSM1 080915Z 00008KT M00/M01 A3023 RMK A01 T10011005  RH  098%=      5-min Rain = 0
KSM1 080920Z 36008KT M00/M01 A3023 RMK A01 T10011006  RH  098%=      5-min Rain = 0
KSM1 080925Z 36009KT M00/M01 A3024 RMK A01 T10021006  RH  098%=      5-min Rain = 0
KSM1 080930Z 01009KT M00/M01 A3024 RMK A01 T10021006  RH  098%=      5-min Rain = 0
KSM1 080935Z 01008KT M00/M01 A3023 RMK A01 T10021006  RH  098%=      5-min Rain = 0
KSM1 080940Z 01009KT M00/M01 A3023 RMK A01 T10021006  RH  098%=      5-min Rain = 0
KSM1 080945Z 02008KT M00/M01 A3023 RMK A01 T10021007  RH  098%=      5-min Rain = 0
KSM1 080950Z 01008KT M00/M01 A3023 RMK A01 T10021007  RH  098%=      5-min Rain = 0
KSM1 080955Z 02009KT M00/M01 A3023 RMK A01 T10031007  RH  098%=      5-min Rain = 0
KSM1 081000Z 01010KT M00/M01 A3023 RMK A01 T10031007  RH  098%=      5-min Rain = 0
KSM1 081005Z 01009KT M00/M01 A3023 RMK A01 T10031007  RH  098%=      5-min Rain = 0
KSM1 081010Z 01009KT M00/M01 A3023 RMK A01 T10031007  RH  098%=      5-min Rain = 0
KSM1 081015Z 01007KT M00/M01 A3023 RMK A01 T10031008  RH  098%=      5-min Rain = 0
KSM1 081020Z 00007KT M00/M01 A3023 RMK A01 T10031008  RH  098%=      5-min Rain = 0
KSM1 081025Z 00010KT M00/M01 A3023 RMK A01 T10041008  RH  098%=      5-min Rain = 0
KSM1 081030Z 01010KT M01/M01 A3023 RMK A01 T10051009  RH  098%=      5-min Rain = 0
KSM1 081035Z 01009KT M01/M01 A3023 RMK A01 T10051009  RH  098%=      5-min Rain = 0
KSM1 081040Z 01009KT M01/M01 A3023 RMK A01 T10061010  RH  098%=      5-min Rain = 0
KSM1 081045Z 01008KT M01/M01 A3023 RMK A01 T10061010  RH  098%=      5-min Rain = 0
KSM1 081050Z 01007KT M01/M01 A3023 RMK A01 T10061010  RH  098%=      5-min Rain = 0
KSM1 081055Z 01006KT M01/M01 A3023 RMK A01 T10061010  RH  098%=      5-min Rain = 0
KSM1 081100Z 01008KT M01/M01 A3023 RMK A01 T10061010  RH  098%=      5-min Rain = 0
KSM1 081105Z 01009KT M01/M01 A3023 RMK A01 T10061010  RH  098%=      5-min Rain = 0.01
KSM1 081110Z 02008KT M01/M01 A3023 RMK A01 T10071010  RH  098%=      5-min Rain = 0
KSM1 081115Z 02007KT M01/M01 A3023 RMK A01 T10071010  RH  098%=      5-min Rain = 0
KSM1 081120Z 01007KT M01/M01 A3023 RMK A01 T10061010  RH  098%=      5-min Rain = 0
KSM1 081125Z 01007KT M01/M01 A3023 RMK A01 T10061010  RH  098%=      5-min Rain = 0
KSM1 081130Z 01008KT M01/M01 A3023 RMK A01 T10061010  RH  098%=      5-min Rain = 0
KSM1 081135Z 01007KT M01/M01 A3024 RMK A01 T10061010  RH  098%=      5-min Rain = 0
KSM1 081140Z 01008KT M01/M01 A3024 RMK A01 T10071010  RH  098%=      5-min Rain = 0
KSM1 081145Z 01008KT M01/M01 A3024 RMK A01 T10071010  RH  098%=      5-min Rain = 0
KSM1 081150Z 00008KT M01/M01 A3024 RMK A01 T10071010  RH  098%=      5-min Rain = 0
KSM1 081155Z 36008KT M01/M01 A3024 RMK A01 T10061010  RH  098%=      5-min Rain = 0
KSM1 081200Z 36008KT M01/M01 A3024 RMK A01 T10061010  RH  098%=      5-min Rain = 0
KSM1 081205Z 36007KT M01/M01 A3025 RMK A01 T10061010  RH  098%=      5-min Rain = 0
KSM1 081210Z 36008KT M01/M01 A3025 RMK A01 T10061010  RH  098%=      5-min Rain = 0
KSM1 081215Z 35008KT M01/M01 A3025 RMK A01 T10061010  RH  098%=      5-min Rain = 0
KSM1 081220Z 36008KT M01/M01 A3025 RMK A01 T10061010  RH  098%=      5-min Rain = 0
KSM1 081225Z 36008KT M01/M01 A3025 RMK A01 T10071010  RH  098%=      5-min Rain = 0
KSM1 081230Z 36008KT M01/M01 A3025 RMK A01 T10061010  RH  098%=      5-min Rain = 0
KSM1 081235Z 35007KT M01/M01 A3025 RMK A01 T10061010  RH  098%=      5-min Rain = 0
KSM1 081240Z 35008KT M01/M01 A3025 RMK A01 T10061010  RH  098%=      5-min Rain = 0
KSM1 081245Z 35009KT M01/M01 A3025 RMK A01 T10061010  RH  098%=      5-min Rain = 0
KSM1 081250Z 36010KT M01/M01 A3025 RMK A01 T10061010  RH  099%=      5-min Rain = 0
KSM1 081255Z 36008KT M01/M01 A3025 RMK A01 T10071010  RH  099%=      5-min Rain = 0
KSM1 081300Z 00008KT M01/M01 A3026 RMK A01 T10061010  RH  099%=      5-min Rain = 0
KSM1 081305Z 35007KT M01/M01 A3026 RMK A01 T10061010  RH  099%=      5-min Rain = 0
KSM1 081310Z 35008KT M01/M01 A3026 RMK A01 T10061010  RH  099%=      5-min Rain = 0
KSM1 081315Z 35009KT M01/M01 A3026 RMK A01 T10061010  RH  099%=      5-min Rain = 0
KSM1 081320Z 35008KT M01/M01 A3026 RMK A01 T10061010  RH  099%=      5-min Rain = 0
KSM1 081325Z 36008KT M01/M01 A3026 RMK A01 T10061010  RH  099%=      5-min Rain = 0
KSM1 081330Z 00008KT M01/M01 A3026 RMK A01 T10061010  RH  099%=      5-min Rain = 0
KSM1 081335Z 00008KT M01/M01 A3027 RMK A01 T10071010  RH  099%=      5-min Rain = 0
KSM1 081340Z 01008KT M01/M01 A3027 RMK A01 T10071010  RH  099%=      5-min Rain = 0
KSM1 081345Z 00008KT M01/M01 A3027 RMK A01 T10071010  RH  099%=      5-min Rain = 0
KSM1 081350Z 36008KT M01/M01 A3027 RMK A01 T10061010  RH  099%=      5-min Rain = 0
KSM1 081355Z 35007KT M01/M01 A3027 RMK A01 T10061010  RH  099%=      5-min Rain = 0
KSM1 081400Z 35008KT M01/M01 A3028 RMK A01 T10061009  RH  099%=      5-min Rain = 0
KSM1 081405Z 35008KT M01/M01 A3028 RMK A01 T10061009  RH  099%=      5-min Rain = 0
KSM1 081410Z 36007KT M01/M01 A3028 RMK A01 T10061009  RH  099%=      5-min Rain = 0
KSM1 081415Z 35007KT M01/M01 A3028 RMK A01 T10061009  RH  099%=      5-min Rain = 0
KSM1 081420Z 35008KT M01/M01 A3029 RMK A01 T10061009  RH  099%=      5-min Rain = 0
KSM1 081425Z 36007KT M01/M01 A3029 RMK A01 T10061009  RH  099%=      5-min Rain = 0
KSM1 081430Z 36008KT M01/M01 A3029 RMK A01 T10051009  RH  099%=      5-min Rain = 0
KSM1 081435Z 36007KT M01/M01 A3029 RMK A01 T10051009  RH  099%=      5-min Rain = 0
KSM1 081440Z 36007KT M01/M01 A3029 RMK A01 T10051009  RH  099%=      5-min Rain = 0
KSM1 081445Z 36007KT M01/M01 A303 RMK A01 T10051008  RH  099%=      5-min Rain = 0
KSM1 081450Z 35008KT M01/M01 A303 RMK A01 T10051008  RH  099%=      5-min Rain = 0
KSM1 081455Z 35008KT M01/M01 A303 RMK A01 T10051008  RH  099%=      5-min Rain = 0
KSM1 081500Z 36007KT M00/M01 A303 RMK A01 T10041008  RH  099%=      5-min Rain = 0
KSM1 081505Z 36006KT M00/M01 A303 RMK A01 T10041008  RH  099%=      5-min Rain = 0
KSM1 081510Z 36008KT M00/M01 A3031 RMK A01 T10041008  RH  099%=      5-min Rain = 0.01
KSM1 081515Z 36009KT M00/M01 A3031 RMK A01 T10041008  RH  099%=      5-min Rain = 0
KSM1 081520Z 00008KT M00/M01 A3031 RMK A01 T10041007  RH  099%=      5-min Rain = 0
KSM1 081525Z 36008KT M00/M01 A3031 RMK A01 T10041007  RH  099%=      5-min Rain = 0
KSM1 081530Z 00007KT M00/M01 A3031 RMK A01 T10031007  RH  099%=      5-min Rain = 0
KSM1 081535Z 00008KT M00/M01 A3031 RMK A01 T10031007  RH  099%=      5-min Rain = 0
KSM1 081540Z 00008KT M00/M01 A3031 RMK A01 T10031007  RH  099%=      5-min Rain = 0
KSM1 081545Z 00007KT M00/M01 A3032 RMK A01 T10031006  RH  099%=      5-min Rain = 0
KSM1 081550Z 00008KT M00/M01 A3032 RMK A01 T10031006  RH  099%=      5-min Rain = 0
KSM1 081555Z 01008KT M00/M01 A3032 RMK A01 T10021006  RH  099%=      5-min Rain = 0.01
KSM1 081600Z 02006KT M00/M01 A3031 RMK A01 T10021005  RH  099%=      5-min Rain = 0
KSM1 081605Z 02007KT M00/M01 A3031 RMK A01 T10021005  RH  099%=      5-min Rain = 0
KSM1 081610Z 02007KT M00/M01 A3032 RMK A01 T10011005  RH  099%=      5-min Rain = 0
KSM1 081615Z 01007KT 00/00 A3032 RMK A01 T00-000-4  RH  099%=      5-min Rain = 0
KSM1 081620Z 01009KT 00/00 A3032 RMK A01 T00-000-4  RH  099%=      5-min Rain = 0
KSM1 081625Z 02009KT 00/00 A3032 RMK A01 T00-000-4  RH  099%=      5-min Rain = 0.01
KSM1 081630Z 02007KT 00/00 A3032 RMK A01 T00-000-4  RH  099%=      5-min Rain = 0.01
KSM1 081635Z 01007KT 00/M00 A3032 RMK A01 T00011003  RH  099%=      5-min Rain = 0
KSM1 081640Z 02008KT 00/00 A3032 RMK A01 T000000-3  RH  099%=      5-min Rain = 0.01
KSM1 081645Z 02008KT 00/M00 A3033 RMK A01 T00011003  RH  099%=      5-min Rain = 0
KSM1 081650Z 02007KT 00/M00 A3032 RMK A01 T00021002  RH  099%=      5-min Rain = 0.01
KSM1 081655Z 01009KT 00/M00 A3032 RMK A01 T00021002  RH  099%=      5-min Rain = 0
KSM1 081700Z 02009KT 00/M00 A3032 RMK A01 T00021001  RH  099%=      5-min Rain = 0.01
KSM1 081705Z 02009KT 00/M00 A3032 RMK A01 T00021002  RH  099%=      5-min Rain = 0.01
KSM1 081710Z 02008KT 00/M00 A3032 RMK A01 T00031001  RH  099%=      5-min Rain = 0
KSM1 081715Z 01008KT 00/M00 A3033 RMK A01 T00031001  RH  099%=      5-min Rain = 0.01
KSM1 081720Z 01008KT 00/M00 A3033 RMK A01 T00021002  RH  099%=      5-min Rain = 0.01
KSM1 081725Z 02008KT 00/M00 A3033 RMK A01 T00031001  RH  099%=      5-min Rain = 0.01
KSM1 081730Z 02008KT 00/00 A3033 RMK A01 T000300-0  RH  099%=      5-min Rain = 0.01
KSM1 081735Z 02008KT 00/00 A3033 RMK A01 T00040001  RH  099%=      5-min Rain = 0.01
KSM1 081740Z 02008KT 00/00 A3033 RMK A01 T00040000  RH  098%=      5-min Rain = 0.02
KSM1 081745Z 02008KT 00/00 A3033 RMK A01 T00040001  RH  098%=      5-min Rain = 0.01
KSM1 081750Z 02006KT 01/00 A3032 RMK A01 T00060002  RH  098%=      5-min Rain = 0.01
KSM1 081755Z 36005KT 01/00 A3032 RMK A01 T00070003  RH  098%=      5-min Rain = 0.02
KSM1 081800Z 35005KT 01/00 A3032 RMK A01 T00080004  RH  098%=      5-min Rain = 0.01
KSM1 081805Z 35004KT 01/00 A3031 RMK A01 T00080004  RH  098%=      5-min Rain = 0.01
KSM1 081810Z 34003KT 01/01 A3031 RMK A01 T00090005  RH  098%=      5-min Rain = 0.02
KSM1 081815Z 36005KT 01/00 A3031 RMK A01 T00080004  RH  098%=      5-min Rain = 0.01
KSM1 081820Z 02006KT 01/01 A3031 RMK A01 T00100005  RH  098%=      5-min Rain = 0.02
KSM1 081825Z 02006KT 01/01 A303 RMK A01 T00100006  RH  098%=      5-min Rain = 0.01
KSM1 081830Z 02006KT 01/01 A303 RMK A01 T00100006  RH  098%=      5-min Rain = 0.01
KSM1 081835Z 02006KT 01/01 A303 RMK A01 T00100006  RH  098%=      5-min Rain = 0.01
KSM1 081840Z 02005KT 01/01 A303 RMK A01 T00110007  RH  098%=      5-min Rain = 0.01
KSM1 081845Z 02005KT 01/01 A3029 RMK A01 T00120007  RH  098%=      5-min Rain = 0.02
KSM1 081850Z 01005KT 01/01 A3029 RMK A01 T00140008  RH  097%=      5-min Rain = 0.01
KSM1 081855Z 36004KT 01/01 A3029 RMK A01 T00140007  RH  096%=      5-min Rain = 0.01
KSM1 081900Z 03004KT 02/01 A3028 RMK A01 T00150005  RH  094%=      5-min Rain = 0.01
KSM1 081905Z 02004KT 02/00 A3028 RMK A01 T00160003  RH  093%=      5-min Rain = 0.01
KSM1 081910Z 35004KT 02/00 A3029 RMK A01 T00150001  RH  091%=      5-min Rain = 0.01
KSM1 081915Z 36004KT 02/00 A3028 RMK A01 T00150001  RH  091%=      5-min Rain = 0
KSM1 081920Z 00004KT 02/00 A3028 RMK A01 T00160001  RH  091%=      5-min Rain = 0
KSM1 081925Z 36004KT 02/00 A3028 RMK A01 T00170002  RH  091%=      5-min Rain = 0
KSM1 081930Z 35004KT 02/00 A3028 RMK A01 T00170002  RH  090%=      5-min Rain = 0
KSM1 081935Z 01003KT 02/00 A3027 RMK A01 T001700-0  RH  089%=      5-min Rain = 0
KSM1 081940Z 36004KT 02/00 A3027 RMK A01 T001800-0  RH  088%=      5-min Rain = 0
KSM1 081945Z 36003KT 02/00 A3027 RMK A01 T00190001  RH  089%=      5-min Rain = 0
KSM1 081950Z 33004KT 02/00 A3027 RMK A01 T00210002  RH  088%=      5-min Rain = 0
KSM1 081955Z 33005KT 02/00 A3027 RMK A01 T00210000  RH  087%=      5-min Rain = 0
KSM1 082000Z 31004KT 02/00 A3026 RMK A01 T00220001  RH  087%=      5-min Rain = 0
KSM1 082005Z 34004KT 02/M00 A3026 RMK A01 T00221001  RH  086%=      5-min Rain = 0
KSM1 082010Z 34002KT 02/M00 A3026 RMK A01 T00211001  RH  087%=      5-min Rain = 0
KSM1 082015Z 31002KT 02/00 A3026 RMK A01 T00220001  RH  087%=      5-min Rain = 0
KSM1 082020Z 32003KT 02/00 A3026 RMK A01 T00240000  RH  085%=      5-min Rain = 0
KSM1 082025Z 29003KT 03/00 A3025 RMK A01 T002500-0  RH  085%=      5-min Rain = 0
KSM1 082030Z 34002KT 03/00 A3025 RMK A01 T00270002  RH  084%=      5-min Rain = 0
KSM1 082035Z 33003KT 03/00 A3025 RMK A01 T00290002  RH  083%=      5-min Rain = 0
KSM1 082040Z 28003KT 03/00 A3025 RMK A01 T00310004  RH  083%=      5-min Rain = 0
KSM1 082045Z 31004KT 03/00 A3025 RMK A01 T00320000  RH  081%=      5-min Rain = 0
KSM1 082050Z 34004KT 03/00 A3025 RMK A01 T00290000  RH  082%=      5-min Rain = 0
KSM1 082055Z 31005KT 03/00 A3025 RMK A01 T00290001  RH  083%=      5-min Rain = 0
KSM1 082100Z 31004KT 03/M00 A3025 RMK A01 T00291001  RH  082%=      5-min Rain = 0
KSM1 082105Z 32005KT 03/M00 A3025 RMK A01 T00291002  RH  081%=      5-min Rain = 0
KSM1 082110Z 31005KT 03/00 A3025 RMK A01 T00310000  RH  081%=      5-min Rain = 0
KSM1 082115Z 31005KT 03/M00 A3025 RMK A01 T00311001  RH  080%=      5-min Rain = 0
KSM1 082120Z 32005KT 03/00 A3025 RMK A01 T00310000  RH  081%=      5-min Rain = 0
KSM1 082125Z 30006KT 03/M00 A3025 RMK A01 T00301002  RH  080%=      5-min Rain = 0
KSM1 082130Z 30004KT 03/M00 A3025 RMK A01 T00311003  RH  080%=      5-min Rain = 0
KSM1 082135Z 29004KT 03/00 A3025 RMK A01 T003200-0  RH  080%=      5-min Rain = 0
KSM1 082140Z 30004KT 03/00 A3025 RMK A01 T00330001  RH  081%=      5-min Rain = 0
KSM1 082145Z 30004KT 03/00 A3025 RMK A01 T00330001  RH  081%=      5-min Rain = 0
KSM1 082150Z 31005KT 03/00 A3025 RMK A01 T00330001  RH  081%=      5-min Rain = 0
KSM1 082155Z 30005KT 03/00 A3025 RMK A01 T003200-0  RH  081%=      5-min Rain = 0
KSM1 082200Z 31004KT 03/00 A3025 RMK A01 T00310000  RH  081%=      5-min Rain = 0
KSM1 082205Z 31005KT 03/00 A3025 RMK A01 T00310000  RH  081%=      5-min Rain = 0
KSM1 082210Z 31005KT 03/00 A3025 RMK A01 T00310001  RH  081%=      5-min Rain = 0
KSM1 082215Z 32005KT 03/00 A3025 RMK A01 T00310001  RH  081%=      5-min Rain = 0
KSM1 082220Z 31004KT 03/M00 A3025 RMK A01 T00311001  RH  080%=      5-min Rain = 0
KSM1 082225Z 30004KT 03/M00 A3024 RMK A01 T00311001  RH  080%=      5-min Rain = 0
KSM1 082230Z 28006KT 03/M00 A3025 RMK A01 T00321002  RH  079%=      5-min Rain = 0
KSM1 082235Z 29006KT 03/M00 A3025 RMK A01 T00321004  RH  078%=      5-min Rain = 0
KSM1 082240Z 28005KT 03/M01 A3025 RMK A01 T00321005  RH  078%=      5-min Rain = 0
KSM1 082245Z 29005KT 03/M01 A3025 RMK A01 T00321005  RH  078%=      5-min Rain = 0
KSM1 082250Z 29006KT 03/M00 A3025 RMK A01 T00321004  RH  078%=      5-min Rain = 0
KSM1 082255Z 29005KT 03/M01 A3024 RMK A01 T00321005  RH  078%=      5-min Rain = 0
KSM1 082300Z 29005KT 03/M01 A3024 RMK A01 T00321005  RH  078%=      5-min Rain = 0
KSM1 082305Z 29004KT 03/M01 A3024 RMK A01 T00321005  RH  078%=      5-min Rain = 0
KSM1 082310Z 31004KT 03/M01 A3024 RMK A01 T00331005  RH  077%=      5-min Rain = 0
KSM1 082315Z 30004KT 03/M00 A3025 RMK A01 T00321004  RH  078%=      5-min Rain = 0
KSM1 082320Z 30004KT 03/M01 A3025 RMK A01 T00321005  RH  078%=      5-min Rain = 0
KSM1 082325Z 30003KT 03/M01 A3025 RMK A01 T00301005  RH  078%=      5-min Rain = 0
KSM1 082330Z 31002KT 03/M01 A3025 RMK A01 T00291005  RH  079%=      5-min Rain = 0
KSM1 082335Z 30002KT 03/M01 A3025 RMK A01 T00271005  RH  080%=      5-min Rain = 0
KSM1 082340Z 30003KT 03/M00 A3025 RMK A01 T00261004  RH  081%=      5-min Rain = 0
KSM1 082345Z 29002KT 03/M01 A3024 RMK A01 T00251005  RH  081%=      5-min Rain = 0
KSM1 082350Z 29002KT 03/M01 A3025 RMK A01 T00251006  RH  081%=      5-min Rain = 0
KSM1 082355Z 28002KT 02/M01 A3025 RMK A01 T00241005  RH  082%=      5-min Rain = 0
KSM1 090000Z 27002KT 02/M01 A3025 RMK A01 T00231005  RH  083%=      5-min Rain = 0
KSM1 090005Z 27002KT 02/M01 A3025 RMK A01 T00221005  RH  083%=      5-min Rain = 0
KSM1 090010Z 27002KT 02/M01 A3025 RMK A01 T00221005  RH  083%=      5-min Rain = 0
KSM1 090015Z 29002KT 02/M01 A3025 RMK A01 T00201007  RH  083%=      5-min Rain = 0
KSM1 090020Z 31002KT 02/M01 A3025 RMK A01 T00151007  RH  086%=      5-min Rain = 0
KSM1 090025Z 32002KT 01/M01 A3024 RMK A01 T00121007  RH  088%=      5-min Rain = 0
KSM1 090030Z 33001KT 01/M01 A3024 RMK A01 T00091009  RH  089%=      5-min Rain = 0
KSM1 090035Z 00002KT 01/M01 A3025 RMK A01 T00081007  RH  090%=      5-min Rain = 0
KSM1 090040Z 01005KT 01/M01 A3025 RMK A01 T00081007  RH  091%=      5-min Rain = 0
KSM1 090045Z 01004KT 01/M01 A3025 RMK A01 T00081007  RH  091%=      5-min Rain = 0
KSM1 090050Z 01004KT 01/M01 A3025 RMK A01 T00061008  RH  091%=      5-min Rain = 0
KSM1 090055Z 01004KT 01/M01 A3026 RMK A01 T00051009  RH  092%=      5-min Rain = 0
KSM1 090100Z 02005KT 00/M01 A3026 RMK A01 T00041009  RH  092%=      5-min Rain = 0
KSM1 090105Z 03005KT 00/M01 A3026 RMK A01 T00021009  RH  093%=      5-min Rain = 0
KSM1 090110Z 03004KT 00/M01 A3026 RMK A01 T00031009  RH  093%=      5-min Rain = 0
KSM1 090115Z 04004KT 00/M01 A3026 RMK A01 T00021009  RH  093%=      5-min Rain = 0
KSM1 090120Z 04005KT 00/M01 A3026 RMK A01 T00021009  RH  094%=      5-min Rain = 0
KSM1 090125Z 04005KT 00/M01 A3026 RMK A01 T00011009  RH  094%=      5-min Rain = 0
KSM1 090130Z 04004KT 00/01 A3027 RMK A01 T00000-10  RH  094%=      5-min Rain = 0
KSM1 090135Z 04003KT M00/M01 A3027 RMK A01 T10011010  RH  094%=      5-min Rain = 0
KSM1 090140Z 04003KT M00/M01 A3027 RMK A01 T10021011  RH  095%=      5-min Rain = 0
KSM1 090145Z 04003KT M00/M01 A3027 RMK A01 T10021011  RH  095%=      5-min Rain = 0
KSM1 090150Z 05003KT M00/M01 A3028 RMK A01 T10041012  RH  095%=      5-min Rain = 0
KSM1 090155Z 05004KT M01/M01 A3028 RMK A01 T10051013  RH  095%=      5-min Rain = 0
KSM1 090200Z 05004KT M01/M02 A3028 RMK A01 T10071015  RH  095%=      5-min Rain = 0
KSM1 090205Z 05004KT M01/M01 A3028 RMK A01 T10071014  RH  095%=      5-min Rain = 0
KSM1 090210Z 05004KT M01/M02 A3028 RMK A01 T10071015  RH  096%=      5-min Rain = 0
KSM1 090215Z 05004KT M01/M02 A3028 RMK A01 T10081015  RH  096%=      5-min Rain = 0
KSM1 090220Z 05003KT M01/M02 A3028 RMK A01 T10081015  RH  096%=      5-min Rain = 0
KSM1 090225Z 05003KT M01/M02 A3028 RMK A01 T10081015  RH  096%=      5-min Rain = 0
KSM1 090230Z 05003KT M01/M02 A3029 RMK A01 T10091016  RH  096%=      5-min Rain = 0
KSM1 090235Z 05003KT M01/M02 A3028 RMK A01 T10101017  RH  096%=      5-min Rain = 0
KSM1 090240Z 05002KT M01/M02 A3029 RMK A01 T10111017  RH  096%=      5-min Rain = 0
KSM1 090245Z 05002KT M01/M02 A3029 RMK A01 T10111017  RH  096%=      5-min Rain = 0
KSM1 090250Z 05002KT M01/M02 A3029 RMK A01 T10101016  RH  096%=      5-min Rain = 0
KSM1 090255Z 05003KT M01/M02 A3029 RMK A01 T10091015  RH  096%=      5-min Rain = 0
KSM1 090300Z 05003KT M01/M02 A3029 RMK A01 T10101017  RH  096%=      5-min Rain = 0
KSM1 090305Z 05003KT M01/M02 A3029 RMK A01 T10121019  RH  096%=      5-min Rain = 0
KSM1 090310Z 05003KT M01/M02 A3029 RMK A01 T10131019  RH  096%=      5-min Rain = 0
KSM1 090315Z 05003KT M01/M02 A3029 RMK A01 T10121018  RH  097%=      5-min Rain = 0
KSM1 090320Z 05002KT M01/M02 A3029 RMK A01 T10121017  RH  097%=      5-min Rain = 0
KSM1 090325Z 05002KT M01/M02 A3029 RMK A01 T10111017  RH  097%=      5-min Rain = 0
KSM1 090330Z 05001KT M01/M02 A3029 RMK A01 T10121018  RH  097%=      5-min Rain = 0
KSM1 090335Z 05001KT M01/M02 A3029 RMK A01 T10111017  RH  097%=      5-min Rain = 0
KSM1 090340Z 05002KT M01/M02 A3029 RMK A01 T10111017  RH  097%=      5-min Rain = 0
KSM1 090345Z 05002KT M01/M02 A3029 RMK A01 T10121018  RH  097%=      5-min Rain = 0
KSM1 090350Z 05002KT M01/M02 A3029 RMK A01 T10121018  RH  097%=      5-min Rain = 0
KSM1 090355Z 05002KT M01/M02 A3029 RMK A01 T10121018  RH  097%=      5-min Rain = 0
KSM1 090400Z 05003KT M01/M02 A3029 RMK A01 T10121017  RH  097%=      5-min Rain = 0
KSM1 090405Z 05003KT M01/M02 A3029 RMK A01 T10121018  RH  097%=      5-min Rain = 0
KSM1 090410Z 05003KT M01/M02 A3029 RMK A01 T10141020  RH  097%=      5-min Rain = 0
KSM1 090415Z 05003KT M02/M02 A3029 RMK A01 T10161022  RH  097%=      5-min Rain = 0
KSM1 090420Z 05004KT M02/M02 A3029 RMK A01 T10161021  RH  097%=      5-min Rain = 0
KSM1 090425Z 05003KT M02/M02 A3029 RMK A01 T10171023  RH  097%=      5-min Rain = 0
KSM1 090430Z 05003KT M02/M02 A3029 RMK A01 T10161022  RH  097%=      5-min Rain = 0
KSM1 090435Z 05003KT M02/M02 A3029 RMK A01 T10151020  RH  097%=      5-min Rain = 0
KSM1 090440Z 05002KT M01/M02 A303 RMK A01 T10141019  RH  097%=      5-min Rain = 0
KSM1 090445Z 05001KT M02/M02 A303 RMK A01 T10151020  RH  097%=      5-min Rain = 0
KSM1 090450Z 05001KT M02/M02 A303 RMK A01 T10161021  RH  097%=      5-min Rain = 0
KSM1 090455Z 05001KT M02/M02 A303 RMK A01 T10151020  RH  097%=      5-min Rain = 0
KSM1 090500Z 05001KT M01/M02 A303 RMK A01 T10141019  RH  097%=      5-min Rain = 0
KSM1 090505Z 05000KT M01/M02 A303 RMK A01 T10141019  RH  097%=      5-min Rain = 0
KSM1 090510Z 05000KT M01/M02 A303 RMK A01 T10141019  RH  097%=      5-min Rain = 0
KSM1 090515Z 05000KT M01/M02 A303 RMK A01 T10141019  RH  097%=      5-min Rain = 0
KSM1 090520Z 00000KT M01/M02 A303 RMK A01 T10141019  RH  097%=      5-min Rain = 0
KSM1 090525Z 00000KT M02/M02 A303 RMK A01 T10151020  RH  097%=      5-min Rain = 0
KSM1 090530Z 00000KT M02/M02 A303 RMK A01 T10151020  RH  097%=      5-min Rain = 0
KSM1 090535Z 05000KT M02/M02 A303 RMK A01 T10151021  RH  097%=      5-min Rain = 0
KSM1 090540Z 05001KT M02/M03 A303 RMK A01 T10221028  RH  096%=      5-min Rain = 0
KSM1 090545Z 05001KT M03/M03 A303 RMK A01 T10251031  RH  096%=      5-min Rain = 0
KSM1 090550Z 05001KT M02/M03 A303 RMK A01 T10241029  RH  097%=      5-min Rain = 0
KSM1 090555Z 05002KT M02/M03 A303 RMK A01 T10211026  RH  097%=      5-min Rain = 0

Page generated in 0.0094 seconds.